Riverdale, Georgia
Current Conditions -  °F | °C
As of 11:52 PM on Thursday 30 Oct 2014 (Local Time) from KATL Reporting Station
Clear Clear  
Wind Chill: 51°   Ceiling: Unl
Heat Index: 51°   Visibility: 10mi
Dew Point: 40°   Wind: 3mph
Humidity: 66%   Direction: 280°W
Pressure: 29.98"   Gusts: NA
Location:  33.57°N, 84.41°W
Report Text: KATL 310352Z 28003KT 10SM CLR 11/04 A2998 RMK AO2 SLP149 T01060044
Loading
Personal Weather Stations






























Interactive Weather Map
Tropical Storm Tracking
New forecast layout! Learn more

10-Day Weather Forecast

Advertisements
Track Severe Weather on mobile